sensor_id;sensor_type;location;lat;lon;timestamp;temperature;humidity
28614;DHT22;15806;53.548;9.964;2023-04-01T00:01:15;14.60;99.90
28614;DHT22;15806;53.548;9.964;2023-04-01T00:02:56;14.60;99.90
28614;DHT22;15806;53.548;9.964;2023-04-01T00:04:36;14.50;99.90
28614;DHT22;15806;53.548;9.964;2023-04-01T00:06:18;14.50;99.90
28614;DHT22;15806;53.548;9.964;2023-04-01T00:07:58;14.60;99.90
28614;DHT22;15806;53.548;9.964;2023-04-01T00:09:39;14.60;99.90
28614;DHT22;15806;53.548;9.964;2023-04-01T00:11:19;14.60;99.90
28614;DHT22;15806;53.548;9.964;2023-04-01T00:13:00;14.70;99.90
28614;DHT22;15806;53.548;9.964;2023-04-01T00:14:40;14.70;99.90
28614;DHT22;15806;53.548;9.964;2023-04-01T00:16:21;14.70;99.90
28614;DHT22;15806;53.548;9.964;2023-04-01T00:18:02;14.70;99.90
28614;DHT22;15806;53.548;9.964;2023-04-01T00:19:43;14.70;99.90
28614;DHT22;15806;53.548;9.964;2023-04-01T00:21:23;14.70;99.90
28614;DHT22;15806;53.548;9.964;2023-04-01T00:23:04;14.70;99.90
28614;DHT22;15806;53.548;9.964;2023-04-01T00:24:45;14.70;99.90
28614;DHT22;15806;53.548;9.964;2023-04-01T00:26:25;14.80;99.90
28614;DHT22;15806;53.548;9.964;2023-04-01T00:28:06;14.80;99.90
28614;DHT22;15806;53.548;9.964;2023-04-01T00:29:47;14.70;99.90
28614;DHT22;15806;53.548;9.964;2023-04-01T00:31:27;14.80;99.90
28614;DHT22;15806;53.548;9.964;2023-04-01T00:33:08;14.80;99.90
28614;DHT22;15806;53.548;9.964;2023-04-01T00:34:52;14.70;99.90
28614;DHT22;15806;53.548;9.964;2023-04-01T00:36:32;14.80;99.90
28614;DHT22;15806;53.548;9.964;2023-04-01T00:38:13;14.70;99.90
28614;DHT22;15806;53.548;9.964;2023-04-01T00:39:54;14.70;99.90
28614;DHT22;15806;53.548;9.964;2023-04-01T00:41:35;14.70;99.90
28614;DHT22;15806;53.548;9.964;2023-04-01T00:43:19;14.70;99.90
28614;DHT22;15806;53.548;9.964;2023-04-01T00:45:23;14.70;99.90
28614;DHT22;15806;53.548;9.964;2023-04-01T00:47:05;14.80;99.90
28614;DHT22;15806;53.548;9.964;2023-04-01T00:48:52;14.80;99.90
28614;DHT22;15806;53.548;9.964;2023-04-01T00:50:34;14.70;99.90
28614;DHT22;15806;53.548;9.964;2023-04-01T00:52:18;14.80;99.90
28614;DHT22;15806;53.548;9.964;2023-04-01T00:54:00;14.80;99.90
28614;DHT22;15806;53.548;9.964;2023-04-01T00:55:43;14.80;99.90
28614;DHT22;15806;53.548;9.964;2023-04-01T00:57:35;14.80;99.90
28614;DHT22;15806;53.548;9.964;2023-04-01T00:59:23;14.70;99.90
28614;DHT22;15806;53.548;9.964;2023-04-01T01:01:04;14.70;99.90
28614;DHT22;15806;53.548;9.964;2023-04-01T01:02:46;14.70;99.90
28614;DHT22;15806;53.548;9.964;2023-04-01T01:04:33;14.80;99.90
28614;DHT22;15806;53.548;9.964;2023-04-01T01:06:46;14.90;99.90
28614;DHT22;15806;53.548;9.964;2023-04-01T01:10:33;14.90;99.90
28614;DHT22;15806;53.548;9.964;2023-04-01T01:12:26;14.80;99.90
28614;DHT22;15806;53.548;9.964;2023-04-01T01:16:06;14.90;99.90
28614;DHT22;15806;53.548;9.964;2023-04-01T01:18:06;14.90;99.90
28614;DHT22;15806;53.548;9.964;2023-04-01T01:24:08;15.00;99.90
28614;DHT22;15806;53.548;9.964;2023-04-01T01:26:14;14.90;99.90
28614;DHT22;15806;53.548;9.964;2023-04-01T01:30:37;15.10;99.90
28614;DHT22;15806;53.548;9.964;2023-04-01T01:36:18;14.90;99.90
28614;DHT22;15806;53.548;9.964;2023-04-01T01:38:05;15.00;99.90
28614;DHT22;15806;53.548;9.964;2023-04-01T01:39:51;15.10;99.90
28614;DHT22;15806;53.548;9.964;2023-04-01T01:41:35;15.00;99.90
28614;DHT22;15806;53.548;9.964;2023-04-01T01:43:21;14.80;99.90
28614;DHT22;15806;53.548;9.964;2023-04-01T01:45:04;14.90;99.90
28614;DHT22;15806;53.548;9.964;2023-04-01T01:46:46;14.90;99.90
28614;DHT22;15806;53.548;9.964;2023-04-01T01:48:29;15.10;99.90
28614;DHT22;15806;53.548;9.964;2023-04-01T01:50:10;15.10;99.90
28614;DHT22;15806;53.548;9.964;2023-04-01T01:51:51;14.80;99.90
28614;DHT22;15806;53.548;9.964;2023-04-01T01:53:32;15.00;99.90
28614;DHT22;15806;53.548;9.964;2023-04-01T01:55:41;15.10;99.90
28614;DHT22;15806;53.548;9.964;2023-04-01T01:57:34;15.00;99.90
28614;DHT22;15806;53.548;9.964;2023-04-01T01:59:18;15.00;99.90
28614;DHT22;15806;53.548;9.964;2023-04-01T02:01:03;15.00;99.90
28614;DHT22;15806;53.548;9.964;2023-04-01T02:02:47;15.10;99.90
28614;DHT22;15806;53.548;9.964;2023-04-01T02:04:28;15.00;99.90
28614;DHT22;15806;53.548;9.964;2023-04-01T02:06:11;15.20;99.90
28614;DHT22;15806;53.548;9.964;2023-04-01T02:08:05;15.10;99.90
28614;DHT22;15806;53.548;9.964;2023-04-01T02:09:47;15.30;99.90
28614;DHT22;15806;53.548;9.964;2023-04-01T02:11:35;15.20;99.90
28614;DHT22;15806;53.548;9.964;2023-04-01T02:13:46;14.90;99.90
28614;DHT22;15806;53.548;9.964;2023-04-01T02:15:30;15.10;99.90
28614;DHT22;15806;53.548;9.964;2023-04-01T02:17:15;15.30;99.90
28614;DHT22;15806;53.548;9.964;2023-04-01T02:18:58;15.30;99.90
28614;DHT22;15806;53.548;9.964;2023-04-01T02:20:40;15.20;99.90
28614;DHT22;15806;53.548;9.964;2023-04-01T02:22:26;15.00;99.90
28614;DHT22;15806;53.548;9.964;2023-04-01T02:24:11;15.40;99.90
28614;DHT22;15806;53.548;9.964;2023-04-01T02:25:53;15.30;99.90
28614;DHT22;15806;53.548;9.964;2023-04-01T02:27:34;15.40;99.90
28614;DHT22;15806;53.548;9.964;2023-04-01T02:29:15;15.00;99.90
28614;DHT22;15806;53.548;9.964;2023-04-01T02:30:57;15.10;99.90
28614;DHT22;15806;53.548;9.964;2023-04-01T02:32:42;15.30;99.90
28614;DHT22;15806;53.548;9.964;2023-04-01T02:34:24;15.40;99.90
28614;DHT22;15806;53.548;9.964;2023-04-01T02:36:05;15.20;99.90
28614;DHT22;15806;53.548;9.964;2023-04-01T02:37:49;15.30;99.90
28614;DHT22;15806;53.548;9.964;2023-04-01T02:39:30;15.20;99.90
28614;DHT22;15806;53.548;9.964;2023-04-01T02:41:11;15.30;99.90
28614;DHT22;15806;53.548;9.964;2023-04-01T02:42:52;15.00;99.90
28614;DHT22;15806;53.548;9.964;2023-04-01T02:44:33;15.30;99.90
28614;DHT22;15806;53.548;9.964;2023-04-01T02:46:13;15.30;99.90
28614;DHT22;15806;53.548;9.964;2023-04-01T02:47:54;14.90;99.90
28614;DHT22;15806;53.548;9.964;2023-04-01T02:49:34;15.30;99.90
28614;DHT22;15806;53.548;9.964;2023-04-01T02:51:15;15.20;99.90
28614;DHT22;15806;53.548;9.964;2023-04-01T02:52:55;15.40;99.90
28614;DHT22;15806;53.548;9.964;2023-04-01T02:54:36;15.00;99.90
28614;DHT22;15806;53.548;9.964;2023-04-01T02:56:16;14.90;99.90
28614;DHT22;15806;53.548;9.964;2023-04-01T02:57:57;15.20;99.90
28614;DHT22;15806;53.548;9.964;2023-04-01T02:59:37;15.20;99.90
28614;DHT22;15806;53.548;9.964;2023-04-01T03:01:18;14.90;99.90
28614;DHT22;15806;53.548;9.964;2023-04-01T03:02:58;15.20;99.90
28614;DHT22;15806;53.548;9.964;2023-04-01T03:04:39;15.20;99.90
28614;DHT22;15806;53.548;9.964;2023-04-01T03:06:20;15.20;99.90
28614;DHT22;15806;53.548;9.964;2023-04-01T03:08:01;15.00;99.90
28614;DHT22;15806;53.548;9.964;2023-04-01T03:09:41;15.00;99.90
28614;DHT22;15806;53.548;9.964;2023-04-01T03:11:22;15.00;99.90
28614;DHT22;15806;53.548;9.964;2023-04-01T03:13:03;14.90;99.90
28614;DHT22;15806;53.548;9.964;2023-04-01T03:14:43;14.90;99.90
28614;DHT22;15806;53.548;9.964;2023-04-01T03:16:24;15.20;99.90
28614;DHT22;15806;53.548;9.964;2023-04-01T03:18:04;14.90;99.90
28614;DHT22;15806;53.548;9.964;2023-04-01T03:19:45;15.00;99.90
28614;DHT22;15806;53.548;9.964;2023-04-01T03:21:25;15.10;99.90
28614;DHT22;15806;53.548;9.964;2023-04-01T03:23:07;15.20;99.90
28614;DHT22;15806;53.548;9.964;2023-04-01T03:24:49;14.90;99.90
28614;DHT22;15806;53.548;9.964;2023-04-01T03:26:29;14.90;99.90
28614;DHT22;15806;53.548;9.964;2023-04-01T03:28:10;15.10;99.90
28614;DHT22;15806;53.548;9.964;2023-04-01T03:29:50;14.80;99.90
28614;DHT22;15806;53.548;9.964;2023-04-01T03:31:31;14.90;99.90
28614;DHT22;15806;53.548;9.964;2023-04-01T03:33:12;15.00;99.90
28614;DHT22;15806;53.548;9.964;2023-04-01T03:34:53;14.80;99.90
28614;DHT22;15806;53.548;9.964;2023-04-01T03:36:33;15.00;99.90
28614;DHT22;15806;53.548;9.964;2023-04-01T03:38:15;15.00;99.90
28614;DHT22;15806;53.548;9.964;2023-04-01T03:39:55;15.00;99.90
28614;DHT22;15806;53.548;9.964;2023-04-01T03:41:36;14.90;99.90
28614;DHT22;15806;53.548;9.964;2023-04-01T03:43:17;15.00;99.90
28614;DHT22;15806;53.548;9.964;2023-04-01T03:44:57;14.90;99.90
28614;DHT22;15806;53.548;9.964;2023-04-01T03:46:38;15.00;99.90
28614;DHT22;15806;53.548;9.964;2023-04-01T03:48:18;14.80;99.90
28614;DHT22;15806;53.548;9.964;2023-04-01T03:49:59;14.80;99.90
28614;DHT22;15806;53.548;9.964;2023-04-01T03:51:41;14.90;99.90
28614;DHT22;15806;53.548;9.964;2023-04-01T03:53:22;14.70;99.90
28614;DHT22;15806;53.548;9.964;2023-04-01T03:55:02;14.70;99.90
28614;DHT22;15806;53.548;9.964;2023-04-01T03:56:43;14.90;99.90
28614;DHT22;15806;53.548;9.964;2023-04-01T03:58:23;14.70;99.90
28614;DHT22;15806;53.548;9.964;2023-04-01T04:00:04;14.60;99.90
28614;DHT22;15806;53.548;9.964;2023-04-01T04:01:46;14.60;99.90
28614;DHT22;15806;53.548;9.964;2023-04-01T04:03:27;14.50;99.90
28614;DHT22;15806;53.548;9.964;2023-04-01T04:05:08;14.70;99.90
28614;DHT22;15806;53.548;9.964;2023-04-01T04:06:48;14.80;99.90
28614;DHT22;15806;53.548;9.964;2023-04-01T04:08:29;14.70;99.90
28614;DHT22;15806;53.548;9.964;2023-04-01T04:10:09;14.60;99.90
28614;DHT22;15806;53.548;9.964;2023-04-01T04:11:50;14.70;99.90
28614;DHT22;15806;53.548;9.964;2023-04-01T04:13:30;14.70;99.90
28614;DHT22;15806;53.548;9.964;2023-04-01T04:15:11;14.80;99.90
28614;DHT22;15806;53.548;9.964;2023-04-01T04:16:52;14.80;99.90
28614;DHT22;15806;53.548;9.964;2023-04-01T04:18:32;14.60;99.90
28614;DHT22;15806;53.548;9.964;2023-04-01T04:20:13;14.90;99.90
28614;DHT22;15806;53.548;9.964;2023-04-01T04:21:54;14.90;99.90
28614;DHT22;15806;53.548;9.964;2023-04-01T04:23:35;15.00;99.90
28614;DHT22;15806;53.548;9.964;2023-04-01T04:25:15;14.80;99.90
28614;DHT22;15806;53.548;9.964;2023-04-01T04:26:56;14.80;99.90
28614;DHT22;15806;53.548;9.964;2023-04-01T04:28:36;14.70;99.90
28614;DHT22;15806;53.548;9.964;2023-04-01T04:30:17;14.90;99.90
28614;DHT22;15806;53.548;9.964;2023-04-01T04:31:58;14.90;99.90
28614;DHT22;15806;53.548;9.964;2023-04-01T04:33:38;15.00;99.90
28614;DHT22;15806;53.548;9.964;2023-04-01T04:35:19;14.70;99.90
28614;DHT22;15806;53.548;9.964;2023-04-01T04:36:59;14.70;99.90
28614;DHT22;15806;53.548;9.964;2023-04-01T04:38:40;14.80;99.90
28614;DHT22;15806;53.548;9.964;2023-04-01T04:40:20;14.80;99.90
28614;DHT22;15806;53.548;9.964;2023-04-01T04:42:00;14.60;99.90
28614;DHT22;15806;53.548;9.964;2023-04-01T04:43:41;14.80;99.90
28614;DHT22;15806;53.548;9.964;2023-04-01T04:45:22;14.70;99.90
28614;DHT22;15806;53.548;9.964;2023-04-01T04:47:03;14.60;99.90
28614;DHT22;15806;53.548;9.964;2023-04-01T04:48:44;14.80;99.90
28614;DHT22;15806;53.548;9.964;2023-04-01T04:50:25;14.60;99.90
28614;DHT22;15806;53.548;9.964;2023-04-01T04:52:05;14.70;99.90
28614;DHT22;15806;53.548;9.964;2023-04-01T04:53:46;14.60;99.90
28614;DHT22;15806;53.548;9.964;2023-04-01T04:55:26;14.60;99.90
28614;DHT22;15806;53.548;9.964;2023-04-01T04:57:07;14.80;99.90
28614;DHT22;15806;53.548;9.964;2023-04-01T04:58:48;14.60;99.90
28614;DHT22;15806;53.548;9.964;2023-04-01T05:00:28;14.70;99.90
28614;DHT22;15806;53.548;9.964;2023-04-01T05:02:09;14.70;99.90
28614;DHT22;15806;53.548;9.964;2023-04-01T05:03:49;14.90;99.90
28614;DHT22;15806;53.548;9.964;2023-04-01T05:05:30;14.80;99.90
28614;DHT22;15806;53.548;9.964;2023-04-01T05:07:10;14.90;99.90
28614;DHT22;15806;53.548;9.964;2023-04-01T05:08:51;14.90;99.90
28614;DHT22;15806;53.548;9.964;2023-04-01T05:10:32;14.80;99.90
28614;DHT22;15806;53.548;9.964;2023-04-01T05:12:12;14.90;99.90
28614;DHT22;15806;53.548;9.964;2023-04-01T05:13:53;15.10;99.90
28614;DHT22;15806;53.548;9.964;2023-04-01T05:15:34;14.90;99.90
28614;DHT22;15806;53.548;9.964;2023-04-01T05:17:15;14.90;99.90
28614;DHT22;15806;53.548;9.964;2023-04-01T05:18:55;14.70;99.90
28614;DHT22;15806;53.548;9.964;2023-04-01T05:20:36;15.00;99.90
28614;DHT22;15806;53.548;9.964;2023-04-01T05:22:16;14.70;99.90
28614;DHT22;15806;53.548;9.964;2023-04-01T05:23:57;14.80;99.90
28614;DHT22;15806;53.548;9.964;2023-04-01T05:25:38;14.90;99.90
28614;DHT22;15806;53.548;9.964;2023-04-01T05:27:18;14.70;99.90
28614;DHT22;15806;53.548;9.964;2023-04-01T05:28:59;14.90;99.90
28614;DHT22;15806;53.548;9.964;2023-04-01T05:30:40;15.00;99.90
28614;DHT22;15806;53.548;9.964;2023-04-01T05:32:21;15.10;99.90
28614;DHT22;15806;53.548;9.964;2023-04-01T05:34:01;15.20;99.90
28614;DHT22;15806;53.548;9.964;2023-04-01T05:35:42;14.90;99.90
28614;DHT22;15806;53.548;9.964;2023-04-01T05:37:22;14.90;99.90
28614;DHT22;15806;53.548;9.964;2023-04-01T05:39:03;15.10;99.90
28614;DHT22;15806;53.548;9.964;2023-04-01T05:40:43;14.80;99.90
28614;DHT22;15806;53.548;9.964;2023-04-01T05:42:24;15.10;99.90
28614;DHT22;15806;53.548;9.964;2023-04-01T05:44:05;15.40;99.90
28614;DHT22;15806;53.548;9.964;2023-04-01T05:45:45;15.00;99.90
28614;DHT22;15806;53.548;9.964;2023-04-01T05:47:26;15.20;99.90
28614;DHT22;15806;53.548;9.964;2023-04-01T05:49:06;14.50;99.90
28614;DHT22;15806;53.548;9.964;2023-04-01T05:50:47;14.30;99.90
28614;DHT22;15806;53.548;9.964;2023-04-01T05:52:27;14.30;99.90
28614;DHT22;15806;53.548;9.964;2023-04-01T05:54:08;13.80;99.90
28614;DHT22;15806;53.548;9.964;2023-04-01T05:55:48;13.70;99.90
28614;DHT22;15806;53.548;9.964;2023-04-01T05:57:29;13.80;99.90
28614;DHT22;15806;53.548;9.964;2023-04-01T05:59:10;13.70;99.90
28614;DHT22;15806;53.548;9.964;2023-04-01T06:00:51;13.70;99.90
28614;DHT22;15806;53.548;9.964;2023-04-01T06:02:31;13.70;99.90
28614;DHT22;15806;53.548;9.964;2023-04-01T06:04:16;13.60;99.90
28614;DHT22;15806;53.548;9.964;2023-04-01T06:05:57;13.40;99.90
28614;DHT22;15806;53.548;9.964;2023-04-01T06:07:38;13.40;99.90
28614;DHT22;15806;53.548;9.964;2023-04-01T06:09:23;13.40;99.90
28614;DHT22;15806;53.548;9.964;2023-04-01T06:11:27;13.30;99.90
28614;DHT22;15806;53.548;9.964;2023-04-01T06:15:19;13.00;99.90
28614;DHT22;15806;53.548;9.964;2023-04-01T06:17:07;13.00;99.90
28614;DHT22;15806;53.548;9.964;2023-04-01T06:19:09;13.00;99.90
28614;DHT22;15806;53.548;9.964;2023-04-01T06:32:03;12.80;99.90
28614;DHT22;15806;53.548;9.964;2023-04-01T06:34:08;12.50;99.90
28614;DHT22;15806;53.548;9.964;2023-04-01T06:36:14;12.60;99.90
28614;DHT22;15806;53.548;9.964;2023-04-01T06:44:07;12.00;99.90
28614;DHT22;15806;53.548;9.964;2023-04-01T06:46:26;11.90;99.90
28614;DHT22;15806;53.548;9.964;2023-04-01T06:50:32;12.00;99.90
28614;DHT22;15806;53.548;9.964;2023-04-01T06:52:47;12.00;99.90
28614;DHT22;15806;53.548;9.964;2023-04-01T06:54:34;11.80;99.90
28614;DHT22;15806;53.548;9.964;2023-04-01T06:56:19;11.50;99.90
28614;DHT22;15806;53.548;9.964;2023-04-01T06:58:04;11.80;99.90
28614;DHT22;15806;53.548;9.964;2023-04-01T06:59:47;11.60;99.90
28614;DHT22;15806;53.548;9.964;2023-04-01T07:02:16;11.50;99.90
28614;DHT22;15806;53.548;9.964;2023-04-01T07:03:47;11.70;99.90
28614;DHT22;15806;53.548;9.964;2023-04-01T07:05:31;11.50;99.90
28614;DHT22;15806;53.548;9.964;2023-04-01T07:09:19;11.10;99.90
28614;DHT22;15806;53.548;9.964;2023-04-01T07:11:28;11.00;99.90
28614;DHT22;15806;53.548;9.964;2023-04-01T07:13:18;11.20;99.90
28614;DHT22;15806;53.548;9.964;2023-04-01T07:15:24;11.10;99.90
28614;DHT22;15806;53.548;9.964;2023-04-01T07:17:17;10.80;99.90
28614;DHT22;15806;53.548;9.964;2023-04-01T07:20:48;11.00;99.90
28614;DHT22;15806;53.548;9.964;2023-04-01T07:22:36;10.80;99.90
28614;DHT22;15806;53.548;9.964;2023-04-01T07:24:40;10.70;99.90
28614;DHT22;15806;53.548;9.964;2023-04-01T07:26:23;10.60;99.90
28614;DHT22;15806;53.548;9.964;2023-04-01T07:28:06;10.60;99.90
28614;DHT22;15806;53.548;9.964;2023-04-01T07:29:52;10.70;99.90
28614;DHT22;15806;53.548;9.964;2023-04-01T07:31:45;10.70;99.90
28614;DHT22;15806;53.548;9.964;2023-04-01T07:36:00;10.70;99.90
28614;DHT22;15806;53.548;9.964;2023-04-01T07:38:04;10.60;99.90
28614;DHT22;15806;53.548;9.964;2023-04-01T07:44:24;10.70;99.90
28614;DHT22;15806;53.548;9.964;2023-04-01T07:46:30;10.50;99.90
28614;DHT22;15806;53.548;9.964;2023-04-01T07:50:28;10.30;99.90
28614;DHT22;15806;53.548;9.964;2023-04-01T07:55:57;10.50;99.90
28614;DHT22;15806;53.548;9.964;2023-04-01T07:58:03;10.30;99.90
28614;DHT22;15806;53.548;9.964;2023-04-01T07:59:59;9.90;99.90
28614;DHT22;15806;53.548;9.964;2023-04-01T08:05:46;10.10;99.90
28614;DHT22;15806;53.548;9.964;2023-04-01T08:18:19;9.90;99.90
28614;DHT22;15806;53.548;9.964;2023-04-01T08:20:10;9.60;99.90
28614;DHT22;15806;53.548;9.964;2023-04-01T08:22:01;9.60;99.90
28614;DHT22;15806;53.548;9.964;2023-04-01T08:23:47;9.70;99.90
28614;DHT22;15806;53.548;9.964;2023-04-01T08:25:29;9.60;99.90
28614;DHT22;15806;53.548;9.964;2023-04-01T08:33:24;9.40;99.90
28614;DHT22;15806;53.548;9.964;2023-04-01T08:35:17;9.40;99.90
28614;DHT22;15806;53.548;9.964;2023-04-01T08:37:23;9.40;99.90
28614;DHT22;15806;53.548;9.964;2023-04-01T08:39:15;9.20;99.90
28614;DHT22;15806;53.548;9.964;2023-04-01T08:43:05;9.00;99.90
28614;DHT22;15806;53.548;9.964;2023-04-01T08:46:48;9.10;99.90
28614;DHT22;15806;53.548;9.964;2023-04-01T08:52:34;9.20;99.90
28614;DHT22;15806;53.548;9.964;2023-04-01T08:56:46;9.00;99.90
28614;DHT22;15806;53.548;9.964;2023-04-01T09:02:50;8.90;99.90
28614;DHT22;15806;53.548;9.964;2023-04-01T09:16:56;8.80;99.90
28614;DHT22;15806;53.548;9.964;2023-04-01T09:25:24;8.40;99.90
28614;DHT22;15806;53.548;9.964;2023-04-01T09:27:24;8.20;99.90
28614;DHT22;15806;53.548;9.964;2023-04-01T09:31:17;8.30;99.90
28614;DHT22;15806;53.548;9.964;2023-04-01T09:33:43;8.30;99.90
28614;DHT22;15806;53.548;9.964;2023-04-01T09:35:47;8.30;99.90
28614;DHT22;15806;53.548;9.964;2023-04-01T09:39:39;8.30;99.90
28614;DHT22;15806;53.548;9.964;2023-04-01T09:41:34;8.50;99.90
28614;DHT22;15806;53.548;9.964;2023-04-01T09:45:20;8.30;99.90
28614;DHT22;15806;53.548;9.964;2023-04-01T09:49:36;8.40;99.90
28614;DHT22;15806;53.548;9.964;2023-04-01T09:51:27;8.40;99.90
28614;DHT22;15806;53.548;9.964;2023-04-01T09:57:22;8.20;99.90
28614;DHT22;15806;53.548;9.964;2023-04-01T10:01:35;8.10;99.90
28614;DHT22;15806;53.548;9.964;2023-04-01T10:03:54;8.10;99.90
28614;DHT22;15806;53.548;9.964;2023-04-01T10:11:33;8.00;99.90
28614;DHT22;15806;53.548;9.964;2023-04-01T10:15:43;8.10;99.90
28614;DHT22;15806;53.548;9.964;2023-04-01T10:38:17;8.10;99.90
28614;DHT22;15806;53.548;9.964;2023-04-01T10:48:22;8.10;99.90
28614;DHT22;15806;53.548;9.964;2023-04-01T11:09:46;8.20;99.90
28614;DHT22;15806;53.548;9.964;2023-04-01T11:25:56;8.30;99.90
28614;DHT22;15806;53.548;9.964;2023-04-01T11:28:07;8.50;99.90
28614;DHT22;15806;53.548;9.964;2023-04-01T11:30:22;8.20;99.90
28614;DHT22;15806;53.548;9.964;2023-04-01T11:32:37;8.10;99.90
28614;DHT22;15806;53.548;9.964;2023-04-01T11:40:52;8.10;99.90
28614;DHT22;15806;53.548;9.964;2023-04-01T11:42:49;8.10;99.90
28614;DHT22;15806;53.548;9.964;2023-04-01T11:44:36;8.10;99.90
28614;DHT22;15806;53.548;9.964;2023-04-01T11:46:44;8.10;99.90
28614;DHT22;15806;53.548;9.964;2023-04-01T11:48:32;8.10;99.90
28614;DHT22;15806;53.548;9.964;2023-04-01T11:52:45;8.10;99.90
28614;DHT22;15806;53.548;9.964;2023-04-01T11:56:57;8.10;99.90
28614;DHT22;15806;53.548;9.964;2023-04-01T12:00:54;8.10;99.90
28614;DHT22;15806;53.548;9.964;2023-04-01T12:02:55;7.90;99.90
28614;DHT22;15806;53.548;9.964;2023-04-01T12:10:19;7.70;99.90
28614;DHT22;15806;53.548;9.964;2023-04-01T12:14:03;7.70;99.90
28614;DHT22;15806;53.548;9.964;2023-04-01T12:17:56;7.60;99.90
28614;DHT22;15806;53.548;9.964;2023-04-01T12:20:15;7.60;99.90
28614;DHT22;15806;53.548;9.964;2023-04-01T12:22:08;7.70;99.90
28614;DHT22;15806;53.548;9.964;2023-04-01T12:37:16;7.60;99.90
28614;DHT22;15806;53.548;9.964;2023-04-01T12:44:03;7.50;99.90
28614;DHT22;15806;53.548;9.964;2023-04-01T12:45:38;7.50;99.90
28614;DHT22;15806;53.548;9.964;2023-04-01T12:56:13;7.40;99.90
28614;DHT22;15806;53.548;9.964;2023-04-01T12:58:00;7.40;99.90
28614;DHT22;15806;53.548;9.964;2023-04-01T13:00:03;7.50;99.90
28614;DHT22;15806;53.548;9.964;2023-04-01T13:02:00;7.50;99.90
28614;DHT22;15806;53.548;9.964;2023-04-01T13:04:05;7.40;99.90
28614;DHT22;15806;53.548;9.964;2023-04-01T13:10:15;7.30;99.90
28614;DHT22;15806;53.548;9.964;2023-04-01T13:18:31;7.10;99.90
28614;DHT22;15806;53.548;9.964;2023-04-01T13:22:11;7.30;99.90
28614;DHT22;15806;53.548;9.964;2023-04-01T13:24:07;7.40;99.90
28614;DHT22;15806;53.548;9.964;2023-04-01T13:25:52;7.40;99.90
28614;DHT22;15806;53.548;9.964;2023-04-01T13:27:47;7.30;99.90
28614;DHT22;15806;53.548;9.964;2023-04-01T13:38:48;7.00;99.90
28614;DHT22;15806;53.548;9.964;2023-04-01T13:40:40;7.00;99.90
28614;DHT22;15806;53.548;9.964;2023-04-01T13:42:28;7.00;99.90
28614;DHT22;15806;53.548;9.964;2023-04-01T13:44:17;6.90;99.90
28614;DHT22;15806;53.548;9.964;2023-04-01T14:00:27;6.90;99.90
28614;DHT22;15806;53.548;9.964;2023-04-01T14:01:53;6.90;99.90
28614;DHT22;15806;53.548;9.964;2023-04-01T14:11:52;6.80;99.90
28614;DHT22;15806;53.548;9.964;2023-04-01T14:13:43;6.70;99.90
28614;DHT22;15806;53.548;9.964;2023-04-01T14:15:49;6.70;99.90
28614;DHT22;15806;53.548;9.964;2023-04-01T14:18:02;6.70;99.90
28614;DHT22;15806;53.548;9.964;2023-04-01T14:22:02;6.60;99.90
28614;DHT22;15806;53.548;9.964;2023-04-01T14:26:35;6.70;99.90
28614;DHT22;15806;53.548;9.964;2023-04-01T14:36:32;6.70;99.90
28614;DHT22;15806;53.548;9.964;2023-04-01T14:40:21;6.70;99.90
28614;DHT22;15806;53.548;9.964;2023-04-01T14:46:26;6.70;99.90
28614;DHT22;15806;53.548;9.964;2023-04-01T14:50:15;6.50;99.90
28614;DHT22;15806;53.548;9.964;2023-04-01T14:52:26;6.50;99.90
28614;DHT22;15806;53.548;9.964;2023-04-01T14:55:58;6.40;99.90
28614;DHT22;15806;53.548;9.964;2023-04-01T14:57:40;6.40;99.90
28614;DHT22;15806;53.548;9.964;2023-04-01T15:01:17;6.40;99.90
28614;DHT22;15806;53.548;9.964;2023-04-01T15:13:14;6.40;99.90
28614;DHT22;15806;53.548;9.964;2023-04-01T15:17:37;6.40;99.90
28614;DHT22;15806;53.548;9.964;2023-04-01T15:21:19;6.40;99.90
28614;DHT22;15806;53.548;9.964;2023-04-01T15:23:20;6.50;99.90
28614;DHT22;15806;53.548;9.964;2023-04-01T15:25:19;6.50;99.90
28614;DHT22;15806;53.548;9.964;2023-04-01T15:27:21;6.60;99.90
28614;DHT22;15806;53.548;9.964;2023-04-01T15:31:19;6.70;99.90
28614;DHT22;15806;53.548;9.964;2023-04-01T15:35:37;6.50;99.90
28614;DHT22;15806;53.548;9.964;2023-04-01T15:43:49;6.40;99.90
28614;DHT22;15806;53.548;9.964;2023-04-01T15:45:42;6.30;99.90
28614;DHT22;15806;53.548;9.964;2023-04-01T15:53:21;6.30;99.90
28614;DHT22;15806;53.548;9.964;2023-04-01T15:55:25;6.40;99.90
28614;DHT22;15806;53.548;9.964;2023-04-01T16:04:44;6.60;99.90
28614;DHT22;15806;53.548;9.964;2023-04-01T16:06:48;6.60;99.90
28614;DHT22;15806;53.548;9.964;2023-04-01T16:16:44;6.50;99.90
28614;DHT22;15806;53.548;9.964;2023-04-01T16:18:58;6.40;99.90
28614;DHT22;15806;53.548;9.964;2023-04-01T16:22:45;6.20;99.90
28614;DHT22;15806;53.548;9.964;2023-04-01T16:25:14;6.20;99.90
28614;DHT22;15806;53.548;9.964;2023-04-01T16:26:56;6.20;99.90
28614;DHT22;15806;53.548;9.964;2023-04-01T16:30:48;6.30;99.90
28614;DHT22;15806;53.548;9.964;2023-04-01T16:44:25;6.00;99.90
28614;DHT22;15806;53.548;9.964;2023-04-01T16:46:21;5.90;99.90
28614;DHT22;15806;53.548;9.964;2023-04-01T16:50:21;6.00;99.90
28614;DHT22;15806;53.548;9.964;2023-04-01T16:54:00;5.80;99.90
28614;DHT22;15806;53.548;9.964;2023-04-01T16:57:51;5.80;99.90
28614;DHT22;15806;53.548;9.964;2023-04-01T16:59:38;5.80;99.90
28614;DHT22;15806;53.548;9.964;2023-04-01T17:01:27;5.80;99.90
28614;DHT22;15806;53.548;9.964;2023-04-01T17:03:41;5.80;99.90
28614;DHT22;15806;53.548;9.964;2023-04-01T17:05:42;5.90;99.90
28614;DHT22;15806;53.548;9.964;2023-04-01T17:11:24;6.00;99.90
28614;DHT22;15806;53.548;9.964;2023-04-01T17:13:24;6.00;99.90
28614;DHT22;15806;53.548;9.964;2023-04-01T17:15:42;6.00;99.90
28614;DHT22;15806;53.548;9.964;2023-04-01T17:17:40;5.80;99.90
28614;DHT22;15806;53.548;9.964;2023-04-01T17:25:12;5.50;99.90
28614;DHT22;15806;53.548;9.964;2023-04-01T17:29:33;5.50;99.90
28614;DHT22;15806;53.548;9.964;2023-04-01T17:31:46;5.50;99.90
28614;DHT22;15806;53.548;9.964;2023-04-01T17:35:39;5.50;99.90
28614;DHT22;15806;53.548;9.964;2023-04-01T17:49:28;5.30;99.90
28614;DHT22;15806;53.548;9.964;2023-04-01T17:51:38;5.20;99.90
28614;DHT22;15806;53.548;9.964;2023-04-01T17:53:42;5.20;99.90
28614;DHT22;15806;53.548;9.964;2023-04-01T17:55:55;5.20;99.90
28614;DHT22;15806;53.548;9.964;2023-04-01T17:57:52;5.20;99.90
28614;DHT22;15806;53.548;9.964;2023-04-01T18:00:00;5.20;99.90
28614;DHT22;15806;53.548;9.964;2023-04-01T18:02:28;5.30;99.90
28614;DHT22;15806;53.548;9.964;2023-04-01T18:04:25;5.30;99.90
28614;DHT22;15806;53.548;9.964;2023-04-01T18:06:19;5.30;99.90
28614;DHT22;15806;53.548;9.964;2023-04-01T18:10:26;5.30;99.90
28614;DHT22;15806;53.548;9.964;2023-04-01T18:12:53;5.20;99.90
28614;DHT22;15806;53.548;9.964;2023-04-01T18:17:25;5.20;99.90
28614;DHT22;15806;53.548;9.964;2023-04-01T18:20:59;5.20;99.90